Time;durP1;ratioP1;P1;durP2;ratioP2;P2;SDS_P1;SDS_P2;PMS_P1;PMS_P2;Temp;Humidity;BMP_temperature;BMP_pressure;BME280_temperature;BME280_humidity;BME280_pressure;Samples;Min_cycle;Max_cycle;Signal;HPM_P1;HPM_P2
2022/12/06 00:01:19;;;;;;;9.35;5.78;;;6.20;99.90;;;;;;4960975;29;20030;-80
2022/12/06 00:03:46;;;;;;;8.88;5.63;;;6.10;99.90;;;;;;4959441;29;20035;-80
2022/12/06 00:06:15;;;;;;;8.55;5.43;;;6.10;99.90;;;;;;4943562;29;20066;-80
2022/12/06 00:08:41;;;;;;;9.55;5.63;;;6.00;99.90;;;;;;4943917;29;20030;-81
2022/12/06 00:11:16;;;;;;;8.57;5.43;;;6.00;99.90;;;;;;4944057;29;20137;-80
2022/12/06 00:13:42;;;;;;;10.90;6.25;;;5.90;99.90;;;;;;4943347;29;20037;-81
2022/12/06 00:16:11;;;;;;;9.40;5.55;;;5.90;99.90;;;;;;4961176;29;20082;-80
2022/12/06 00:18:38;;;;;;;9.52;5.50;;;5.80;99.90;;;;;;4942482;29;20085;-80
2022/12/06 00:21:09;;;;;;;7.63;4.68;;;5.80;99.90;;;;;;4960848;29;20019;-81
2022/12/06 00:23:39;;;;;;;7.93;4.68;;;5.70;99.90;;;;;;4950359;29;20019;-81
2022/12/06 00:26:05;;;;;;;8.63;5.28;;;5.70;99.90;;;;;;4948520;29;20032;-81
2022/12/06 00:28:32;;;;;;;7.80;5.03;;;5.70;99.90;;;;;;4960912;29;20114;-81
2022/12/06 00:30:59;;;;;;;7.78;4.97;;;5.70;99.90;;;;;;4938189;29;20490;-81
2022/12/06 00:33:25;;;;;;;8.63;5.53;;;5.70;99.90;;;;;;4961027;29;20476;-80
2022/12/06 00:35:58;;;;;;;7.22;4.65;;;5.70;99.90;;;;;;4942831;29;20023;-81
2022/12/06 00:38:25;;;;;;;8.32;5.22;;;5.70;99.90;;;;;;4941549;29;20024;-81
2022/12/06 00:40:59;;;;;;;7.07;4.38;;;5.70;99.90;;;;;;4934332;29;20050;-81
2022/12/06 00:43:25;;;;;;;9.13;4.55;;;5.70;99.90;;;;;;4934009;29;20443;-81
2022/12/06 00:45:50;;;;;;;7.82;4.95;;;5.70;99.90;;;;;;4943309;29;20038;-81
2022/12/06 00:48:16;;;;;;;8.65;5.18;;;5.70;99.90;;;;;;4960778;29;20023;-81
2022/12/06 00:50:42;;;;;;;8.65;5.22;;;5.70;99.90;;;;;;4961581;28;20098;-81
2022/12/06 00:53:07;;;;;;;7.25;4.57;;;5.70;99.90;;;;;;4960828;29;20066;-81
2022/12/06 00:55:33;;;;;;;8.48;5.07;;;5.70;99.90;;;;;;4943636;29;20063;-81
2022/12/06 00:57:59;;;;;;;8.70;5.45;;;5.70;99.90;;;;;;4960410;29;20043;-81
2022/12/06 01:00:25;;;;;;;8.68;5.32;;;5.80;99.90;;;;;;4942851;29;20118;-83
2022/12/06 01:02:50;;;;;;;8.13;4.85;;;5.80;99.90;;;;;;4942991;29;20119;-82
2022/12/06 01:05:16;;;;;;;7.13;4.85;;;5.80;99.90;;;;;;4960002;29;20038;-82
2022/12/06 01:07:42;;;;;;;7.75;5.10;;;5.80;99.90;;;;;;4942912;29;20034;-81
2022/12/06 01:10:08;;;;;;;9.27;5.15;;;5.80;99.90;;;;;;4939148;29;20066;-81
2022/12/06 01:12:33;;;;;;;8.07;5.03;;;5.80;99.90;;;;;;4942552;29;20055;-80
2022/12/06 01:14:59;;;;;;;8.80;5.30;;;5.80;99.90;;;;;;4960128;29;20038;-81
2022/12/06 01:17:27;;;;;;;8.02;5.30;;;5.80;99.90;;;;;;4942363;29;20082;-81
2022/12/06 01:19:55;;;;;;;9.90;5.55;;;5.80;99.90;;;;;;4942254;29;20039;-81
2022/12/06 01:22:21;;;;;;;7.50;4.95;;;5.90;99.90;;;;;;4935853;29;20043;-81
2022/12/06 01:24:49;;;;;;;8.75;4.70;;;5.90;99.90;;;;;;4940370;29;20042;-80
2022/12/06 01:27:14;;;;;;;9.02;5.10;;;5.90;99.90;;;;;;4951164;29;20018;-80
2022/12/06 01:29:42;;;;;;;7.78;5.22;;;5.90;99.90;;;;;;4937564;29;20027;-80
2022/12/06 01:32:08;;;;;;;11.30;6.18;;;5.90;99.90;;;;;;4942356;29;20027;-80
2022/12/06 01:34:34;;;;;;;8.32;5.10;;;5.90;99.90;;;;;;4942855;29;20038;-80
2022/12/06 01:37:00;;;;;;;9.07;5.50;;;5.90;99.90;;;;;;4935008;29;20031;-80
2022/12/06 01:39:26;;;;;;;9.50;4.97;;;5.80;99.90;;;;;;4940627;29;20075;-80
2022/12/06 01:41:52;;;;;;;8.40;5.25;;;5.90;99.90;;;;;;4940400;29;20035;-83
2022/12/06 01:44:41;;;;;;;10.80;6.22;;;5.80;99.90;;;;;;4934118;29;20039;-81
2022/12/06 01:47:27;;;;;;;9.15;5.20;;;5.80;99.90;;;;;;4930317;29;20106;-81
2022/12/06 01:50:10;;;;;;;9.07;5.75;;;5.80;99.90;;;;;;4959568;29;20054;-79
2022/12/06 01:52:53;;;;;;;7.55;4.32;;;5.80;99.90;;;;;;4958578;28;20078;-79
2022/12/06 01:55:21;;;;;;;9.82;4.97;;;5.80;99.90;;;;;;4959731;29;20082;-79
2022/12/06 01:57:50;;;;;;;7.95;5.03;;;5.80;99.90;;;;;;4959131;29;20051;-79
2022/12/06 02:00:16;;;;;;;8.00;5.22;;;5.80;99.90;;;;;;4959434;29;20473;-79
2022/12/06 02:02:42;;;;;;;9.10;5.28;;;5.80;99.90;;;;;;4942045;29;20499;-79
2022/12/06 02:05:08;;;;;;;9.23;5.45;;;5.80;99.90;;;;;;4958721;29;20067;-79
2022/12/06 02:07:35;;;;;;;8.68;5.13;;;5.80;99.90;;;;;;4959274;29;20440;-79
2022/12/06 02:10:02;;;;;;;9.23;5.35;;;5.80;99.90;;;;;;4942146;29;20547;-79
2022/12/06 02:12:27;;;;;;;8.18;4.90;;;5.80;99.90;;;;;;4957082;29;20019;-79
2022/12/06 02:14:54;;;;;;;8.60;4.95;;;5.80;99.90;;;;;;4940429;29;20036;-80
2022/12/06 02:17:25;;;;;;;10.88;6.57;;;5.80;99.90;;;;;;4935922;29;20065;-80
2022/12/06 02:19:58;;;;;;;6.90;4.63;;;5.70;99.90;;;;;;4941629;29;20035;-80
2022/12/06 02:26:17;;;;;;;8.98;4.75;;;5.70;99.90;;;;;;4918458;29;20036;-81
2022/12/06 02:29:14;;;;;;;8.48;4.80;;;5.80;99.90;;;;;;4942322;29;20035;-80
2022/12/06 02:31:58;;;;;;;8.43;4.38;;;5.70;99.90;;;;;;4959043;29;20063;-80
2022/12/06 02:34:42;;;;;;;8.27;5.05;;;5.70;99.90;;;;;;4958926;29;20031;-80
2022/12/06 02:37:46;;;;;;;7.38;4.47;;;5.80;99.90;;;;;;4941816;29;20031;-80
2022/12/06 02:40:20;;;;;;;10.27;4.30;;;5.80;99.90;;;;;;4924938;29;20106;-80
2022/12/06 02:43:00;;;;;;;8.95;5.10;;;5.80;99.90;;;;;;4932825;29;20047;-81
2022/12/06 02:45:33;;;;;;;9.05;5.03;;;5.80;99.90;;;;;;4941486;29;20102;-80
2022/12/06 02:48:01;;;;;;;;;;;5.80;99.90;;;;;;4958922;29;20400;-80
2022/12/06 02:50:37;;;;;;;8.07;4.50;;;5.80;99.90;;;;;;4941624;29;20335;-80
2022/12/06 02:53:06;;;;;;;8.45;4.82;;;5.80;99.90;;;;;;4958790;29;20568;-79
2022/12/06 02:55:33;;;;;;;7.22;4.68;;;5.70;99.90;;;;;;4958830;29;20034;-79
2022/12/06 02:57:58;;;;;;;8.77;5.65;;;5.80;99.90;;;;;;4958219;29;20082;-79
2022/12/06 03:00:44;;;;;;;9.07;5.53;;;5.80;99.90;;;;;;4958636;29;20027;-79
2022/12/06 03:03:24;;;;;;;9.88;6.25;;;5.80;99.90;;;;;;4941470;29;20034;-79
2022/12/06 03:06:02;;;;;;;10.50;5.40;;;5.70;99.90;;;;;;4962613;29;20027;-79
2022/12/06 03:08:36;;;;;;;9.45;5.72;;;5.70;99.90;;;;;;4945018;29;20023;-79
2022/12/06 03:11:02;;;;;;;7.32;5.13;;;5.70;99.90;;;;;;4945327;29;20027;-79
2022/12/06 03:14:05;;;;;;;9.30;5.57;;;5.70;99.90;;;;;;4944248;29;20035;-79
2022/12/06 03:17:02;;;;;;;9.23;5.28;;;5.80;99.90;;;;;;4913459;29;20044;-80
2022/12/06 03:19:29;;;;;;;9.02;5.18;;;5.80;99.90;;;;;;4961622;29;20132;-79
2022/12/06 03:22:12;;;;;;;8.40;5.47;;;5.70;99.90;;;;;;4944953;29;20043;-79
2022/12/06 03:24:40;;;;;;;8.55;4.85;;;5.70;99.90;;;;;;4961584;29;20574;-79
2022/12/06 03:27:14;;;;;;;9.65;5.22;;;5.70;99.90;;;;;;4944963;29;20035;-79
2022/12/06 03:29:45;;;;;;;10.35;5.68;;;5.70;99.90;;;;;;4961732;29;20034;-79
2022/12/06 03:32:14;;;;;;;11.02;6.38;;;5.70;99.90;;;;;;4937127;29;20027;-80
2022/12/06 03:34:47;;;;;;;10.13;6.10;;;5.70;99.90;;;;;;4959410;29;20500;-79
2022/12/06 03:37:17;;;;;;;8.95;5.50;;;5.70;99.90;;;;;;4950876;29;20031;-80
2022/12/06 03:39:46;;;;;;;10.65;6.05;;;5.70;99.90;;;;;;4942473;29;20051;-80
2022/12/06 03:42:11;;;;;;;10.07;6.22;;;5.70;99.90;;;;;;4925415;29;20540;-80
2022/12/06 03:44:37;;;;;;;10.73;6.15;;;5.70;99.90;;;;;;4925346;29;20027;-80
2022/12/06 03:47:11;;;;;;;10.57;6.10;;;5.70;99.90;;;;;;4944413;29;20106;-80
2022/12/06 03:50:07;;;;;;;;;;;5.80;99.90;;;;;;4934773;29;20132;-82
2022/12/06 03:52:33;;;;;;;9.73;5.80;;;5.70;99.90;;;;;;4961370;29;19948;-79
2022/12/06 03:54:59;;;;;;;10.30;5.70;;;5.70;99.90;;;;;;4961940;29;20472;-79
2022/12/06 03:57:24;;;;;;;10.05;5.63;;;5.60;99.90;;;;;;4944137;29;20439;-79
2022/12/06 03:59:50;;;;;;;10.65;6.25;;;5.60;99.90;;;;;;4962013;29;20032;-79
2022/12/06 04:02:16;;;;;;;10.05;6.18;;;5.60;99.90;;;;;;4940566;29;20031;-79
2022/12/06 04:04:41;;;;;;;11.15;6.32;;;5.60;99.90;;;;;;4942648;29;20027;-80
2022/12/06 04:07:09;;;;;;;12.40;6.72;;;5.60;99.90;;;;;;4942208;29;20038;-80
2022/12/06 04:10:01;;;;;;;11.32;6.53;;;5.70;99.90;;;;;;4942422;29;20035;-79
2022/12/06 04:15:12;;;;;;;9.48;5.28;;;5.70;99.90;;;;;;4962646;28;20508;-79
2022/12/06 04:20:25;;;;;;;11.93;6.13;;;5.60;99.90;;;;;;4961241;29;20050;-81
2022/12/06 04:23:03;;;;;;;11.13;5.82;;;5.70;99.90;;;;;;4944211;29;20087;-81
2022/12/06 04:25:37;;;;;;;10.65;5.90;;;5.70;99.90;;;;;;4934598;29;20059;-81
2022/12/06 04:39:01;;;;;;;12.05;6.60;;;5.60;99.90;;;;;;4954163;28;20057;-80
2022/12/06 04:44:25;;;;;;;12.60;6.97;;;5.70;99.90;;;;;;4960917;29;20029;-81
2022/12/06 04:46:51;;;;;;;10.88;6.20;;;5.70;99.90;;;;;;4943673;29;20044;-79
2022/12/06 04:49:17;;;;;;;10.60;5.82;;;5.70;99.90;;;;;;4943350;29;20065;-79
2022/12/06 04:51:42;;;;;;;9.73;5.80;;;5.70;99.90;;;;;;4938787;29;20088;-80
2022/12/06 04:54:08;;;;;;;9.98;6.45;;;5.70;99.90;;;;;;4960475;29;20105;-79
2022/12/06 04:56:34;;;;;;;13.02;7.20;;;5.80;99.90;;;;;;4960527;29;20062;-79
2022/12/06 04:59:00;;;;;;;14.52;7.93;;;5.70;99.90;;;;;;4943347;29;20047;-79
2022/12/06 05:01:25;;;;;;;13.48;7.63;;;5.70;99.90;;;;;;4960403;29;20515;-79
2022/12/06 05:03:51;;;;;;;12.07;6.75;;;5.60;99.90;;;;;;4960403;29;20020;-80
2022/12/06 05:06:17;;;;;;;12.00;6.60;;;5.70;99.90;;;;;;4943191;29;20087;-80
2022/12/06 05:08:43;;;;;;;11.70;6.78;;;5.70;99.90;;;;;;4960314;29;20070;-80
2022/12/06 05:11:08;;;;;;;10.52;5.82;;;5.70;99.90;;;;;;4943123;29;20038;-80
2022/12/06 05:13:35;;;;;;;12.48;6.57;;;5.80;99.90;;;;;;4943479;29;20063;-80
2022/12/06 05:16:04;;;;;;;12.95;6.80;;;5.80;99.90;;;;;;4960130;29;20031;-80
2022/12/06 05:18:30;;;;;;;10.48;6.38;;;5.80;99.90;;;;;;4959870;29;20879;-80
2022/12/06 05:21:05;;;;;;;12.68;6.85;;;5.80;99.90;;;;;;4960315;29;20543;-80
2022/12/06 05:23:32;;;;;;;11.15;6.32;;;5.80;99.90;;;;;;4942734;29;20032;-79
2022/12/06 05:26:04;;;;;;;12.55;6.53;;;5.80;99.90;;;;;;4959953;28;20024;-79
2022/12/06 05:28:31;;;;;;;15.32;7.53;;;5.80;99.90;;;;;;4950196;29;20016;-79
2022/12/06 05:30:56;;;;;;;11.43;6.63;;;5.80;99.90;;;;;;4960073;29;20106;-80
2022/12/06 05:33:23;;;;;;;13.52;6.57;;;5.80;99.90;;;;;;4942599;29;20086;-80
2022/12/06 05:35:49;;;;;;;11.70;6.22;;;5.70;99.90;;;;;;4939677;29;20043;-79
2022/12/06 05:38:14;;;;;;;12.15;6.70;;;5.80;99.90;;;;;;4940728;29;20103;-79
2022/12/06 05:40:41;;;;;;;13.57;7.28;;;5.80;99.90;;;;;;4923411;29;20075;-79
2022/12/06 05:43:07;;;;;;;13.02;6.63;;;5.80;99.90;;;;;;4940491;29;20425;-79
2022/12/06 05:45:33;;;;;;;10.23;5.78;;;5.80;99.90;;;;;;4940447;29;20031;-80
2022/12/06 05:47:58;;;;;;;9.95;5.38;;;5.80;99.90;;;;;;4955060;29;20031;-80
2022/12/06 05:50:24;;;;;;;11.43;5.65;;;5.80;99.90;;;;;;4959768;29;20034;-79
2022/12/06 05:52:57;;;;;;;11.35;5.82;;;5.80;99.90;;;;;;4959516;29;20063;-79
2022/12/06 05:55:23;;;;;;;8.80;4.75;;;5.80;99.90;;;;;;4959314;29;20027;-79
2022/12/06 05:57:50;;;;;;;8.90;5.18;;;5.80;99.90;;;;;;4959293;29;20032;-79
2022/12/06 06:00:17;;;;;;;9.25;4.82;;;5.80;99.90;;;;;;4959390;29;20564;-79
2022/12/06 06:02:42;;;;;;;13.77;6.03;;;5.80;99.90;;;;;;4958819;29;20015;-80
2022/12/06 06:05:08;;;;;;;9.15;4.57;;;5.80;99.90;;;;;;4959443;29;20034;-80
2022/12/06 06:07:34;;;;;;;9.02;4.60;;;5.90;99.90;;;;;;4941912;29;20019;-80
2022/12/06 06:10:00;;;;;;;9.05;4.60;;;5.80;99.90;;;;;;4939064;29;20027;-81
2022/12/06 06:12:26;;;;;;;10.27;4.90;;;5.80;99.90;;;;;;4958397;29;20097;-80
2022/12/06 06:14:52;;;;;;;9.52;4.75;;;5.70;99.90;;;;;;4951904;29;20047;-80
2022/12/06 06:17:20;;;;;;;8.98;4.30;;;5.70;99.90;;;;;;4958288;29;20046;-80
2022/12/06 06:19:46;;;;;;;8.18;4.63;;;5.70;99.90;;;;;;4958693;29;20035;-82
2022/12/06 06:22:13;;;;;;;9.38;5.03;;;5.70;99.90;;;;;;4958782;29;20020;-80
2022/12/06 06:24:40;;;;;;;8.77;4.65;;;5.70;99.90;;;;;;4941817;29;20036;-81
2022/12/06 06:27:07;;;;;;;7.72;4.25;;;5.70;99.90;;;;;;4941256;29;20038;-80
2022/12/06 06:29:32;;;;;;;8.90;5.20;;;5.60;99.90;;;;;;4941107;29;20039;-81
2022/12/06 06:31:58;;;;;;;7.72;4.10;;;5.60;99.90;;;;;;4958507;29;20058;-81
2022/12/06 06:34:24;;;;;;;9.52;5.15;;;5.60;99.90;;;;;;4958721;29;20113;-81
2022/12/06 06:36:53;;;;;;;8.82;4.90;;;5.60;99.90;;;;;;4932295;29;20032;-81
2022/12/06 06:39:21;;;;;;;9.43;4.38;;;5.60;99.90;;;;;;4959235;28;20055;-81
2022/12/06 06:41:46;;;;;;;9.48;4.82;;;5.60;99.90;;;;;;4938213;29;20019;-81
2022/12/06 06:44:12;;;;;;;7.95;4.63;;;5.70;99.90;;;;;;4945239;29;20033;-81
2022/12/06 06:46:38;;;;;;;8.60;4.50;;;5.60;99.90;;;;;;4962169;29;20027;-81
2022/12/06 06:49:04;;;;;;;10.63;5.38;;;5.60;99.90;;;;;;4945479;29;20122;-80
2022/12/06 06:51:31;;;;;;;9.50;4.80;;;5.60;99.90;;;;;;4940430;29;20027;-80
2022/12/06 06:53:57;;;;;;;9.05;5.28;;;5.50;99.90;;;;;;4926758;29;20491;-80
2022/12/06 06:56:22;;;;;;;8.32;4.57;;;5.60;99.90;;;;;;4943425;29;20023;-80
2022/12/06 06:58:48;;;;;;;7.43;4.78;;;5.50;99.90;;;;;;4943600;29;20036;-80
2022/12/06 07:01:18;;;;;;;10.63;4.97;;;5.50;99.90;;;;;;4943270;29;20027;-80
2022/12/06 07:03:44;;;;;;;9.73;5.32;;;5.60;99.90;;;;;;4932265;29;20051;-80
2022/12/06 07:06:50;;;;;;;9.25;4.68;;;5.60;99.90;;;;;;4962457;29;20435;-82
2022/12/06 07:09:41;;;;;;;8.85;4.20;;;5.60;99.90;;;;;;4943643;29;20039;-82
2022/12/06 07:12:07;;;;;;;6.72;3.88;;;5.60;99.90;;;;;;4945294;29;20023;-82
2022/12/06 07:14:32;;;;;;;8.38;4.40;;;5.60;99.90;;;;;;4954429;29;20031;-77
2022/12/06 07:16:58;;;;;;;9.23;5.15;;;5.50;99.90;;;;;;4961458;28;20031;-80
2022/12/06 07:19:24;;;;;;;8.70;4.60;;;5.60;99.90;;;;;;4966119;28;20500;-79
2022/12/06 07:21:50;;;;;;;7.65;3.95;;;5.50;99.90;;;;;;4943097;29;20079;-79
2022/12/06 07:24:15;;;;;;;7.80;4.03;;;5.60;99.90;;;;;;4942815;29;20035;-79
2022/12/06 07:26:41;;;;;;;7.68;3.92;;;5.50;99.90;;;;;;4924511;29;20058;-79
2022/12/06 07:29:06;;;;;;;8.77;4.03;;;5.60;99.90;;;;;;4925138;29;20540;-79
2022/12/06 07:31:32;;;;;;;8.80;4.07;;;5.60;99.90;;;;;;4942067;29;20130;-79
2022/12/06 07:34:00;;;;;;;8.65;4.47;;;5.60;99.90;;;;;;4925268;29;20137;-79
2022/12/06 07:36:29;;;;;;;6.20;3.40;;;5.60;99.90;;;;;;4951676;29;20506;-80
2022/12/06 07:38:56;;;;;;;8.43;4.13;;;5.60;99.90;;;;;;4961813;28;20134;-83
2022/12/06 07:46:55;;;;;;;7.35;3.90;;;5.60;99.90;;;;;;4961400;29;20038;-80
2022/12/06 07:49:21;;;;;;;6.57;3.58;;;5.70;99.90;;;;;;4961440;28;20027;-80
2022/12/06 07:51:47;;;;;;;8.00;4.05;;;5.70;99.90;;;;;;4961324;29;20031;-81
2022/12/06 07:54:14;;;;;;;8.63;4.75;;;5.60;99.90;;;;;;4958295;28;20065;-80
2022/12/06 07:56:40;;;;;;;8.77;4.45;;;5.70;99.90;;;;;;4942495;29;20023;-81
2022/12/06 07:59:06;;;;;;;7.85;4.30;;;5.70;99.90;;;;;;4938746;29;20031;-80
2022/12/06 08:01:32;;;;;;;7.93;4.25;;;5.70;99.90;;;;;;4960955;29;20034;-81
2022/12/06 08:03:59;;;;;;;8.57;4.40;;;5.70;99.90;;;;;;4960978;29;20027;-80
2022/12/06 08:06:26;;;;;;;7.75;4.38;;;5.70;99.90;;;;;;4958809;29;20019;-80
2022/12/06 08:08:51;;;;;;;8.68;5.15;;;5.70;99.90;;;;;;4960557;29;20043;-80
2022/12/06 08:11:17;;;;;;;7.22;4.50;;;5.70;99.90;;;;;;4943642;29;20027;-81
2022/12/06 08:13:43;;;;;;;7.57;4.75;;;5.70;99.90;;;;;;4945976;29;20027;-80
2022/12/06 08:16:14;;;;;;;7.38;4.20;;;5.60;99.90;;;;;;4942437;29;20037;-80
2022/12/06 08:18:40;;;;;;;7.00;4.28;;;5.60;99.90;;;;;;4945316;29;20132;-80
2022/12/06 08:21:07;;;;;;;8.48;4.30;;;5.70;99.90;;;;;;4961180;29;20063;-80
2022/12/06 08:23:33;;;;;;;6.90;4.22;;;5.70;99.90;;;;;;4944500;29;20020;-80
2022/12/06 08:26:11;;;;;;;8.85;5.15;;;5.70;99.90;;;;;;4941867;29;20027;-80
2022/12/06 08:28:37;;;;;;;9.60;5.10;;;5.80;99.90;;;;;;4938135;29;20034;-80
2022/12/06 08:31:09;;;;;;;8.25;5.05;;;5.80;99.90;;;;;;4934044;29;20118;-83
2022/12/06 08:33:35;;;;;;;8.80;5.35;;;5.80;99.90;;;;;;4940929;29;20118;-81
2022/12/06 08:36:07;;;;;;;7.60;4.22;;;5.80;99.90;;;;;;4959559;29;20109;-81
2022/12/06 08:38:33;;;;;;;8.77;4.73;;;5.80;99.90;;;;;;4936383;28;20027;-79
2022/12/06 08:40:59;;;;;;;7.10;4.40;;;5.90;99.90;;;;;;4942905;29;20031;-79
2022/12/06 08:43:24;;;;;;;7.20;4.18;;;5.80;99.90;;;;;;4960986;29;20031;-79
2022/12/06 08:45:51;;;;;;;8.60;4.68;;;5.90;99.90;;;;;;4959818;29;20143;-79
2022/12/06 08:48:16;;;;;;;8.77;4.80;;;5.90;99.90;;;;;;4960559;29;20027;-80
2022/12/06 08:50:42;;;;;;;7.97;4.97;;;5.90;99.90;;;;;;4959796;29;20106;-79
2022/12/06 08:53:08;;;;;;;8.00;4.53;;;5.90;99.90;;;;;;4953278;29;20031;-79
2022/12/06 08:55:33;;;;;;;8.43;5.20;;;6.00;99.90;;;;;;4951088;29;20081;-79
2022/12/06 08:57:59;;;;;;;7.70;4.82;;;5.90;99.90;;;;;;4958349;29;20035;-79
2022/12/06 09:00:25;;;;;;;9.57;5.47;;;6.00;99.90;;;;;;4958998;29;20027;-79
2022/12/06 09:02:50;;;;;;;6.10;3.95;;;6.10;99.90;;;;;;4942157;29;20077;-79
2022/12/06 09:05:16;;;;;;;9.45;5.22;;;6.10;99.90;;;;;;4942278;29;20023;-79
2022/12/06 09:07:42;;;;;;;8.25;4.85;;;6.00;99.90;;;;;;4959645;29;20106;-79
2022/12/06 09:10:08;;;;;;;8.38;4.50;;;6.00;99.90;;;;;;4960144;29;20041;-79
2022/12/06 09:12:33;;;;;;;7.38;4.40;;;6.10;99.90;;;;;;4960281;29;20019;-79
2022/12/06 09:14:59;;;;;;;9.18;4.63;;;6.10;99.90;;;;;;4943223;29;20042;-79
2022/12/06 09:17:25;;;;;;;8.20;5.15;;;6.20;99.90;;;;;;4959679;29;20061;-79
2022/12/06 09:19:50;;;;;;;8.07;4.78;;;6.20;99.90;;;;;;4968788;28;20526;-81
2022/12/06 09:22:16;;;;;;;9.85;5.47;;;6.20;99.90;;;;;;4965439;28;20571;-80
2022/12/06 09:24:42;;;;;;;7.75;4.78;;;6.20;99.90;;;;;;4967779;28;20023;-80
2022/12/06 09:27:07;;;;;;;5.57;3.97;;;6.20;99.90;;;;;;4933630;29;20171;-71
2022/12/06 09:29:34;;;;;;;8.85;5.25;;;6.20;99.90;;;;;;4939459;29;20028;-80
2022/12/06 09:32:00;;;;;;;9.55;5.43;;;6.20;99.90;;;;;;4928376;29;20035;-79
2022/12/06 09:34:26;;;;;;;7.85;4.70;;;6.20;99.90;;;;;;4941450;29;20129;-79
2022/12/06 09:36:59;;;;;;;7.78;4.85;;;6.30;99.90;;;;;;4953379;29;20485;-77
2022/12/06 09:39:46;;;;;;;8.15;5.15;;;6.30;99.90;;;;;;4935231;29;20621;-74
2022/12/06 09:42:42;;;;;;;7.20;4.43;;;6.30;99.90;;;;;;4958546;28;20027;-73
2022/12/06 09:45:57;;;;;;;6.63;4.03;;;6.20;99.90;;;;;;4939723;29;20555;-73
2022/12/06 09:48:32;;;;;;;8.05;4.85;;;6.30;99.90;;;;;;4940221;28;20040;-73
2022/12/06 09:51:34;;;;;;;9.30;5.63;;;6.20;99.90;;;;;;4938766;29;20568;-73
2022/12/06 09:54:06;;;;;;;7.32;5.03;;;6.20;99.90;;;;;;4950581;29;20089;-74
2022/12/06 09:56:46;;;;;;;9.88;5.72;;;6.10;99.90;;;;;;4962982;28;20035;-73
2022/12/06 09:59:38;;;;;;;9.40;5.70;;;6.10;99.90;;;;;;4945551;28;20059;-74
2022/12/06 10:02:33;;;;;;;8.25;4.80;;;6.00;99.90;;;;;;4961211;28;20026;-75
2022/12/06 10:05:37;;;;;;;7.93;4.78;;;6.10;99.90;;;;;;4941672;29;20432;-76
2022/12/06 10:08:30;;;;;;;9.33;5.60;;;6.10;99.90;;;;;;4967268;28;20030;-76
2022/12/06 10:11:04;;;;;;;7.28;4.70;;;6.10;99.90;;;;;;4960896;28;20028;-76
2022/12/06 10:13:39;;;;;;;7.72;4.68;;;6.00;99.90;;;;;;4932504;29;20034;-76
2022/12/06 10:16:14;;;;;;;8.00;5.20;;;6.00;99.90;;;;;;4922698;29;20039;-76
2022/12/06 10:19:07;;;;;;;8.15;5.18;;;6.00;99.90;;;;;;4922675;29;20070;-76
2022/12/06 10:21:49;;;;;;;7.25;4.28;;;6.10;99.90;;;;;;4922410;29;20039;-75
2022/12/06 10:24:45;;;;;;;8.00;4.55;;;6.00;99.90;;;;;;4922457;29;20089;-75
2022/12/06 10:27:19;;;;;;;8.85;5.70;;;6.00;99.90;;;;;;4963394;28;20027;-73
2022/12/06 10:29:57;;;;;;;9.55;5.43;;;6.00;99.90;;;;;;4950234;28;20028;-74
2022/12/06 10:32:43;;;;;;;9.02;5.60;;;6.00;99.90;;;;;;4922184;29;20032;-76
2022/12/06 10:35:41;;;;;;;8.93;5.63;;;6.00;99.90;;;;;;4944656;29;20027;-75
2022/12/06 10:38:08;;;;;;;8.13;4.80;;;6.00;99.90;;;;;;4937430;29;20039;-76
2022/12/06 10:41:05;;;;;;;10.07;6.20;;;6.00;99.90;;;;;;4958403;28;20496;-74
2022/12/06 10:43:43;;;;;;;8.65;5.32;;;6.00;99.90;;;;;;4944863;29;20488;-74
2022/12/06 10:49:32;;;;;;;9.02;5.38;;;6.10;99.90;;;;;;4958534;29;20440;-75
2022/12/06 10:52:19;;;;;;;8.02;4.95;;;6.10;99.90;;;;;;4928580;29;20062;-75
2022/12/06 10:55:10;;;;;;;8.23;5.15;;;6.10;99.90;;;;;;4958474;29;20476;-75
2022/12/06 10:57:41;;;;;;;9.65;5.38;;;6.20;99.90;;;;;;4958386;29;20038;-74
2022/12/06 11:00:14;;;;;;;7.68;5.15;;;6.10;99.90;;;;;;4958213;29;20047;-74
2022/12/06 11:03:01;;;;;;;9.37;5.77;;;6.20;99.90;;;;;;4958291;29;20106;-74
2022/12/06 11:05:33;;;;;;;10.85;6.45;;;6.20;99.90;;;;;;4940948;29;20283;-75
2022/12/06 11:08:09;;;;;;;9.90;6.00;;;6.20;99.90;;;;;;4940897;29;20028;-74
2022/12/06 11:10:37;;;;;;;8.93;5.20;;;6.20;99.90;;;;;;4957847;29;20095;-75
2022/12/06 11:13:28;;;;;;;9.95;6.18;;;6.20;99.90;;;;;;4940856;29;20475;-75
2022/12/06 11:16:04;;;;;;;10.88;5.75;;;6.20;99.90;;;;;;4940787;29;20031;-74
2022/12/06 11:18:32;;;;;;;7.80;4.65;;;6.20;99.90;;;;;;4960014;28;20035;-74
2022/12/06 11:21:05;;;;;;;10.52;6.47;;;6.30;99.90;;;;;;4977500;28;20106;-74
2022/12/06 11:23:58;;;;;;;9.07;4.90;;;6.30;99.90;;;;;;4960083;28;20069;-74
2022/12/06 11:27:08;;;;;;;9.13;5.75;;;6.30;99.90;;;;;;4980790;28;20019;-73
2022/12/06 11:29:36;;;;;;;7.90;4.78;;;6.30;99.90;;;;;;4980986;28;20027;-74
2022/12/06 11:32:06;;;;;;;10.93;7.00;;;6.30;99.90;;;;;;4981120;28;20099;-75
2022/12/06 11:34:55;;;;;;;9.45;6.07;;;6.30;99.90;;;;;;4970945;28;20035;-73
2022/12/06 11:37:25;;;;;;;12.02;6.82;;;6.40;99.90;;;;;;4964329;28;20031;-75
2022/12/06 11:39:57;;;;;;;11.73;7.10;;;6.40;99.90;;;;;;4978392;28;20081;-74
2022/12/06 11:42:26;;;;;;;13.20;8.33;;;6.50;99.90;;;;;;4961396;29;20036;-74
2022/12/06 11:45:14;;;;;;;12.52;7.85;;;6.50;99.90;;;;;;4979998;28;20101;-73
2022/12/06 11:47:40;;;;;;;10.63;6.10;;;6.50;99.90;;;;;;4967738;28;20112;-74
2022/12/06 11:50:15;;;;;;;10.82;6.95;;;6.50;99.90;;;;;;4980554;28;20027;-73
2022/12/06 11:53:03;;;;;;;9.98;5.80;;;6.50;99.90;;;;;;4980519;28;20023;-74
2022/12/06 11:55:34;;;;;;;10.27;6.70;;;6.60;99.90;;;;;;4963225;28;20034;-74
2022/12/06 11:58:44;;;;;;;8.00;5.45;;;6.60;99.90;;;;;;4980213;28;20030;-75
2022/12/06 12:01:13;;;;;;;8.27;5.22;;;6.70;99.90;;;;;;4889281;28;20039;-76
2022/12/06 12:03:46;;;;;;;10.40;5.55;;;6.70;99.90;;;;;;4980354;28;20026;-76
2022/12/06 12:06:25;;;;;;;;;;;6.70;99.90;;;;;;4980966;28;20026;-75
2022/12/06 12:09:00;;;;;;;6.25;3.78;;;6.70;99.90;;;;;;4980034;28;19914;-74
2022/12/06 12:11:54;;;;;;;7.90;5.03;;;6.70;99.90;;;;;;4962673;28;20070;-74
2022/12/06 12:14:29;;;;;;;8.43;5.15;;;6.60;99.90;;;;;;4962786;28;20023;-74
2022/12/06 12:17:01;;;;;;;6.93;4.28;;;6.70;99.90;;;;;;4962573;28;20372;-75
2022/12/06 12:19:30;;;;;;;7.45;4.82;;;6.70;99.90;;;;;;4962749;28;20115;-74
2022/12/06 12:21:58;;;;;;;9.15;5.72;;;6.70;99.90;;;;;;4979791;28;20022;-73
2022/12/06 12:24:52;;;;;;;7.90;5.00;;;6.80;99.90;;;;;;4962467;28;20022;-74
2022/12/06 12:27:43;;;;;;;7.00;4.68;;;6.80;99.90;;;;;;4957613;29;20054;-76
2022/12/06 12:30:24;;;;;;;7.72;4.93;;;6.80;99.90;;;;;;4978005;28;20035;-76
2022/12/06 12:33:03;;;;;;;6.80;4.70;;;6.80;99.90;;;;;;4962811;28;20027;-74
2022/12/06 12:35:30;;;;;;;7.22;4.18;;;6.80;99.90;;;;;;4953178;28;20093;-76
2022/12/06 12:38:02;;;;;;;8.63;5.40;;;6.90;99.90;;;;;;4962565;28;20034;-77
2022/12/06 12:40:32;;;;;;;8.18;4.72;;;6.80;99.90;;;;;;4962630;28;20049;-78
2022/12/06 12:43:03;;;;;;;7.38;4.32;;;6.90;99.90;;;;;;4980021;28;20023;-81
2022/12/06 12:45:30;;;;;;;7.63;4.88;;;6.90;99.90;;;;;;4980265;28;20059;-77
2022/12/06 12:48:00;;;;;;;9.05;5.97;;;6.90;99.90;;;;;;4949372;28;20027;-80
2022/12/06 12:50:28;;;;;;;8.02;4.95;;;6.90;99.90;;;;;;4980298;28;20022;-78
2022/12/06 12:52:54;;;;;;;9.77;6.00;;;6.90;99.90;;;;;;4957606;28;20396;-78
2022/12/06 12:55:22;;;;;;;8.50;5.15;;;6.90;99.90;;;;;;4962507;28;20053;-74
2022/12/06 12:57:51;;;;;;;9.63;5.43;;;6.90;99.90;;;;;;4962138;28;20113;-76
2022/12/06 13:00:21;;;;;;;11.00;6.10;;;7.00;99.90;;;;;;4962482;28;20109;-73
2022/12/06 13:03:16;;;;;;;9.70;5.80;;;7.00;99.90;;;;;;4979933;28;20030;-73
2022/12/06 13:05:42;;;;;;;6.50;4.03;;;7.00;99.90;;;;;;4968859;28;20125;-74
2022/12/06 13:08:17;;;;;;;7.90;5.32;;;7.00;99.90;;;;;;4980076;28;20023;-73
2022/12/06 13:10:47;;;;;;;7.50;4.45;;;7.00;99.90;;;;;;4961943;28;20105;-74
2022/12/06 13:13:27;;;;;;;7.18;4.30;;;7.00;99.90;;;;;;4979735;28;20031;-74
2022/12/06 13:15:55;;;;;;;8.73;5.72;;;7.00;99.90;;;;;;4962183;28;20030;-76
2022/12/06 13:18:37;;;;;;;8.57;4.90;;;7.00;99.90;;;;;;4979380;28;20097;-75
2022/12/06 13:21:32;;;;;;;8.38;4.65;;;7.00;99.90;;;;;;4979748;28;20464;-76
2022/12/06 13:24:11;;;;;;;7.50;4.35;;;7.10;99.90;;;;;;4978768;28;20031;-75
2022/12/06 13:26:59;;;;;;;7.25;4.35;;;7.10;99.90;;;;;;4979391;28;20027;-74
2022/12/06 13:29:36;;;;;;;6.80;4.28;;;7.10;99.90;;;;;;4979360;28;20058;-78
2022/12/06 13:32:13;;;;;;;7.50;4.35;;;7.10;99.90;;;;;;4979047;28;20031;-79
2022/12/06 13:34:57;;;;;;;6.78;4.60;;;7.10;99.90;;;;;;4979276;28;20494;-79
2022/12/06 13:37:49;;;;;;;8.57;5.22;;;7.20;99.90;;;;;;4962653;28;20496;-80
2022/12/06 13:40:34;;;;;;;6.65;4.28;;;7.20;99.90;;;;;;4965462;28;20047;-77
2022/12/06 13:43:02;;;;;;;7.90;4.53;;;7.20;99.90;;;;;;4958516;28;20037;-80
2022/12/06 13:45:37;;;;;;;9.93;5.70;;;7.20;99.90;;;;;;4961590;28;20062;-77
2022/12/06 13:48:23;;;;;;;9.25;5.43;;;7.20;99.90;;;;;;4965488;28;20023;-78
2022/12/06 13:51:00;;;;;;;7.50;4.60;;;7.20;99.90;;;;;;4978691;28;20423;-78
2022/12/06 13:53:32;;;;;;;6.97;4.28;;;7.20;99.90;;;;;;4961617;28;20038;-77